KMGJ/MGJ METAR and TAF weather

Enter ICAO airport designator
Station Type Date Time Source
KMGJ METAR 2020/07/02 17:54 UTC NOAA

KMGJ 021754Z AUTO 06006KT 10SM CLR 32/18 A2981 RMK AO2 SLP091 T03170183 10322 20200 58011


Station Type Date Time Source
KMGJ Decoded METAR 2020/07/02 17:54 UTC NOAA

MONTGOMERY ORANGE CO AIRPORT, NY, United States (KMGJ) 41-31N 074-16W 108M
Jul 02, 2020 - 01:54 PM EDT / 2020.07.02 1754 UTC
Wind: from the ENE (060 degrees) at 7 MPH (6 KT):0
Visibility: 10 mile(s):0
Sky conditions: clear
Temperature: 89.1 F (31.7 C)
Dew Point: 64.9 F (18.3 C)
Relative Humidity: 44%
Pressure (altimeter): 29.81 in. Hg (1009 hPa)
Pressure tendency: 0.03 inches (1.1 hPa) lower than three hours ago
ob: KMGJ 021754Z AUTO 06006KT 10SM CLR 32/18 A2981 RMK AO2 SLP091 T03170183 10322 20200 58011
cycle: 18

Station Type Date Time Source
KMGJ TAF UTC NOAA

Error!

Example: see airport list